sensor_id;sensor_type;location;lat;lon;timestamp;P1;durP1;ratioP1;P2;durP2;ratioP2
22687;SDS011;11511;51.514;7.080;2023-05-10T06:22:46;66.03;;;34.10;;
22687;SDS011;11511;51.514;7.080;2023-05-10T06:25:13;65.28;;;34.53;;
22687;SDS011;11511;51.514;7.080;2023-05-10T06:27:39;63.05;;;34.13;;
22687;SDS011;11511;51.514;7.080;2023-05-10T06:30:05;67.35;;;35.70;;
22687;SDS011;11511;51.514;7.080;2023-05-10T06:32:33;68.03;;;34.95;;
22687;SDS011;11511;51.514;7.080;2023-05-10T06:34:59;65.30;;;33.17;;
22687;SDS011;11511;51.514;7.080;2023-05-10T06:37:24;63.58;;;33.38;;
22687;SDS011;11511;51.514;7.080;2023-05-10T06:39:49;57.50;;;32.90;;
22687;SDS011;11511;51.514;7.080;2023-05-10T06:42:15;60.40;;;31.50;;
22687;SDS011;11511;51.514;7.080;2023-05-10T06:44:40;53.95;;;30.75;;
22687;SDS011;11511;51.514;7.080;2023-05-10T06:47:05;50.45;;;29.63;;
22687;SDS011;11511;51.514;7.080;2023-05-10T06:49:31;50.72;;;29.42;;
22687;SDS011;11511;51.514;7.080;2023-05-10T06:51:56;55.17;;;29.52;;
22687;SDS011;11511;51.514;7.080;2023-05-10T06:54:21;48.10;;;27.25;;
22687;SDS011;11511;51.514;7.080;2023-05-10T06:56:48;48.20;;;27.23;;
22687;SDS011;11511;51.514;7.080;2023-05-10T06:59:13;49.40;;;27.40;;
22687;SDS011;11511;51.514;7.080;2023-05-10T07:01:40;45.45;;;25.55;;
22687;SDS011;11511;51.514;7.080;2023-05-10T07:04:05;44.20;;;26.77;;
22687;SDS011;11511;51.514;7.080;2023-05-10T07:06:34;42.60;;;25.58;;
22687;SDS011;11511;51.514;7.080;2023-05-10T07:09:00;45.55;;;27.05;;
22687;SDS011;11511;51.514;7.080;2023-05-10T07:11:25;45.35;;;27.08;;
22687;SDS011;11511;51.514;7.080;2023-05-10T07:13:51;43.08;;;25.45;;
22687;SDS011;11511;51.514;7.080;2023-05-10T07:16:17;42.10;;;25.23;;
22687;SDS011;11511;51.514;7.080;2023-05-10T07:18:42;40.38;;;24.35;;
22687;SDS011;11511;51.514;7.080;2023-05-10T07:21:07;37.45;;;23.80;;
22687;SDS011;11511;51.514;7.080;2023-05-10T07:23:33;39.67;;;25.35;;
22687;SDS011;11511;51.514;7.080;2023-05-10T07:25:58;41.40;;;24.50;;
22687;SDS011;11511;51.514;7.080;2023-05-10T07:28:24;41.08;;;24.02;;
22687;SDS011;11511;51.514;7.080;2023-05-10T07:30:49;40.40;;;23.58;;
22687;SDS011;11511;51.514;7.080;2023-05-10T07:33:15;40.25;;;23.58;;
22687;SDS011;11511;51.514;7.080;2023-05-10T07:35:41;37.47;;;23.52;;
22687;SDS011;11511;51.514;7.080;2023-05-10T07:38:06;36.15;;;23.55;;
22687;SDS011;11511;51.514;7.080;2023-05-10T07:40:31;42.10;;;23.20;;
22687;SDS011;11511;51.514;7.080;2023-05-10T07:42:57;36.17;;;22.65;;
22687;SDS011;11511;51.514;7.080;2023-05-10T07:45:23;39.10;;;23.92;;
22687;SDS011;11511;51.514;7.080;2023-05-10T07:47:48;37.95;;;22.67;;
22687;SDS011;11511;51.514;7.080;2023-05-10T07:50:14;45.15;;;25.10;;
22687;SDS011;11511;51.514;7.080;2023-05-10T07:52:40;41.92;;;23.92;;
22687;SDS011;11511;51.514;7.080;2023-05-10T07:55:06;39.15;;;22.83;;
22687;SDS011;11511;51.514;7.080;2023-05-10T07:57:33;37.10;;;22.13;;
22687;SDS011;11511;51.514;7.080;2023-05-10T07:59:58;37.80;;;22.85;;
22687;SDS011;11511;51.514;7.080;2023-05-10T08:02:24;36.65;;;22.80;;
22687;SDS011;11511;51.514;7.080;2023-05-10T08:04:49;37.67;;;22.73;;
22687;SDS011;11511;51.514;7.080;2023-05-10T08:07:14;39.72;;;23.02;;
22687;SDS011;11511;51.514;7.080;2023-05-10T08:09:39;40.35;;;24.08;;
22687;SDS011;11511;51.514;7.080;2023-05-10T08:12:05;46.00;;;24.33;;
22687;SDS011;11511;51.514;7.080;2023-05-10T08:14:30;42.65;;;24.20;;
22687;SDS011;11511;51.514;7.080;2023-05-10T08:16:58;41.10;;;23.58;;
22687;SDS011;11511;51.514;7.080;2023-05-10T08:19:23;36.80;;;22.27;;
22687;SDS011;11511;51.514;7.080;2023-05-10T08:21:49;37.45;;;22.83;;
22687;SDS011;11511;51.514;7.080;2023-05-10T08:24:14;41.72;;;22.70;;
22687;SDS011;11511;51.514;7.080;2023-05-10T08:26:40;38.97;;;22.50;;
22687;SDS011;11511;51.514;7.080;2023-05-10T08:29:08;38.00;;;22.58;;
22687;SDS011;11511;51.514;7.080;2023-05-10T08:31:36;38.60;;;21.10;;
22687;SDS011;11511;51.514;7.080;2023-05-10T08:34:01;35.85;;;20.55;;
22687;SDS011;11511;51.514;7.080;2023-05-10T08:36:27;31.45;;;17.83;;
22687;SDS011;11511;51.514;7.080;2023-05-10T08:38:53;31.02;;;17.55;;
22687;SDS011;11511;51.514;7.080;2023-05-10T08:41:20;28.60;;;17.85;;
22687;SDS011;11511;51.514;7.080;2023-05-10T08:43:46;29.73;;;17.58;;
22687;SDS011;11511;51.514;7.080;2023-05-10T08:46:16;27.25;;;17.15;;
22687;SDS011;11511;51.514;7.080;2023-05-10T08:48:43;28.27;;;17.58;;
22687;SDS011;11511;51.514;7.080;2023-05-10T08:51:11;28.00;;;17.33;;
22687;SDS011;11511;51.514;7.080;2023-05-10T08:53:38;28.88;;;17.05;;
22687;SDS011;11511;51.514;7.080;2023-05-10T08:56:04;26.92;;;16.52;;
22687;SDS011;11511;51.514;7.080;2023-05-10T08:58:30;25.08;;;15.35;;
22687;SDS011;11511;51.514;7.080;2023-05-10T09:00:55;26.35;;;15.75;;
22687;SDS011;11511;51.514;7.080;2023-05-10T09:03:22;22.25;;;14.25;;
22687;SDS011;11511;51.514;7.080;2023-05-10T09:05:48;23.30;;;15.13;;
22687;SDS011;11511;51.514;7.080;2023-05-10T09:08:14;22.33;;;15.07;;
22687;SDS011;11511;51.514;7.080;2023-05-10T09:10:41;23.35;;;15.52;;
22687;SDS011;11511;51.514;7.080;2023-05-10T09:13:08;22.83;;;15.18;;
22687;SDS011;11511;51.514;7.080;2023-05-10T09:15:35;23.48;;;14.95;;
22687;SDS011;11511;51.514;7.080;2023-05-10T09:18:00;24.67;;;14.35;;
22687;SDS011;11511;51.514;7.080;2023-05-10T09:20:27;22.90;;;15.07;;
22687;SDS011;11511;51.514;7.080;2023-05-10T09:22:53;23.90;;;16.08;;
22687;SDS011;11511;51.514;7.080;2023-05-10T09:25:19;23.13;;;15.50;;
22687;SDS011;11511;51.514;7.080;2023-05-10T09:27:45;23.90;;;16.33;;
22687;SDS011;11511;51.514;7.080;2023-05-10T09:30:28;21.52;;;16.33;;
22687;SDS011;11511;51.514;7.080;2023-05-10T09:32:55;22.92;;;15.38;;
22687;SDS011;11511;51.514;7.080;2023-05-10T09:35:22;21.33;;;14.73;;
22687;SDS011;11511;51.514;7.080;2023-05-10T09:37:50;22.20;;;15.23;;
22687;SDS011;11511;51.514;7.080;2023-05-10T09:40:22;23.55;;;14.50;;
22687;SDS011;11511;51.514;7.080;2023-05-10T09:42:54;20.55;;;14.23;;
22687;SDS011;11511;51.514;7.080;2023-05-10T09:45:20;23.17;;;14.35;;
22687;SDS011;11511;51.514;7.080;2023-05-10T09:47:46;24.20;;;16.00;;
22687;SDS011;11511;51.514;7.080;2023-05-10T09:50:12;29.25;;;16.95;;
22687;SDS011;11511;51.514;7.080;2023-05-10T09:53:12;27.20;;;17.05;;
22687;SDS011;11511;51.514;7.080;2023-05-10T09:58:01;33.30;;;21.40;;
22687;SDS011;11511;51.514;7.080;2023-05-10T10:00:27;31.40;;;20.67;;
22687;SDS011;11511;51.514;7.080;2023-05-10T10:02:57;29.88;;;19.40;;
22687;SDS011;11511;51.514;7.080;2023-05-10T10:05:30;30.35;;;19.15;;
22687;SDS011;11511;51.514;7.080;2023-05-10T10:08:01;33.08;;;19.45;;
22687;SDS011;11511;51.514;7.080;2023-05-10T10:10:29;28.88;;;18.52;;
22687;SDS011;11511;51.514;7.080;2023-05-10T10:12:56;28.35;;;17.83;;
22687;SDS011;11511;51.514;7.080;2023-05-10T10:15:21;29.52;;;17.15;;
22687;SDS011;11511;51.514;7.080;2023-05-10T10:17:48;25.15;;;16.45;;
22687;SDS011;11511;51.514;7.080;2023-05-10T10:20:14;26.70;;;16.13;;
22687;SDS011;11511;51.514;7.080;2023-05-10T10:22:40;23.88;;;15.57;;
22687;SDS011;11511;51.514;7.080;2023-05-10T10:25:05;25.30;;;16.70;;
22687;SDS011;11511;51.514;7.080;2023-05-10T10:30:16;21.30;;;14.90;;
22687;SDS011;11511;51.514;7.080;2023-05-10T10:35:31;23.15;;;15.00;;
22687;SDS011;11511;51.514;7.080;2023-05-10T10:37:58;21.08;;;14.52;;
22687;SDS011;11511;51.514;7.080;2023-05-10T10:40:27;22.77;;;14.35;;
22687;SDS011;11511;51.514;7.080;2023-05-10T10:42:56;19.30;;;13.00;;
22687;SDS011;11511;51.514;7.080;2023-05-10T10:45:23;23.45;;;13.60;;
22687;SDS011;11511;51.514;7.080;2023-05-10T10:47:53;22.73;;;14.35;;
22687;SDS011;11511;51.514;7.080;2023-05-10T10:50:47;22.65;;;14.45;;
22687;SDS011;11511;51.514;7.080;2023-05-10T10:53:12;20.80;;;14.45;;
22687;SDS011;11511;51.514;7.080;2023-05-10T10:55:47;25.83;;;15.82;;
22687;SDS011;11511;51.514;7.080;2023-05-10T11:01:15;28.02;;;18.50;;
22687;SDS011;11511;51.514;7.080;2023-05-10T11:06:32;29.73;;;18.98;;
22687;SDS011;11511;51.514;7.080;2023-05-10T11:09:19;32.70;;;20.45;;
22687;SDS011;11511;51.514;7.080;2023-05-10T11:11:50;28.08;;;18.17;;
22687;SDS011;11511;51.514;7.080;2023-05-10T11:14:19;27.25;;;17.10;;
22687;SDS011;11511;51.514;7.080;2023-05-10T11:16:46;23.00;;;15.80;;
22687;SDS011;11511;51.514;7.080;2023-05-10T11:19:12;22.42;;;14.48;;
22687;SDS011;11511;51.514;7.080;2023-05-10T11:21:49;23.38;;;14.90;;
22687;SDS011;11511;51.514;7.080;2023-05-10T11:24:19;21.58;;;13.73;;
22687;SDS011;11511;51.514;7.080;2023-05-10T11:26:50;21.13;;;14.13;;
22687;SDS011;11511;51.514;7.080;2023-05-10T11:29:16;18.23;;;12.70;;
22687;SDS011;11511;51.514;7.080;2023-05-10T11:31:43;22.45;;;13.55;;
22687;SDS011;11511;51.514;7.080;2023-05-10T11:34:10;17.05;;;11.60;;
22687;SDS011;11511;51.514;7.080;2023-05-10T11:36:36;17.95;;;12.70;;
22687;SDS011;11511;51.514;7.080;2023-05-10T11:39:02;18.35;;;11.80;;
22687;SDS011;11511;51.514;7.080;2023-05-10T11:41:28;17.75;;;11.63;;
22687;SDS011;11511;51.514;7.080;2023-05-10T11:44:01;18.05;;;11.55;;
22687;SDS011;11511;51.514;7.080;2023-05-10T11:46:27;17.92;;;11.25;;
22687;SDS011;11511;51.514;7.080;2023-05-10T11:48:55;18.17;;;13.02;;
22687;SDS011;11511;51.514;7.080;2023-05-10T11:51:24;21.25;;;12.75;;
22687;SDS011;11511;51.514;7.080;2023-05-10T11:53:50;26.48;;;13.82;;
22687;SDS011;11511;51.514;7.080;2023-05-10T11:56:18;17.27;;;13.10;;
22687;SDS011;11511;51.514;7.080;2023-05-10T11:58:45;19.48;;;13.10;;
22687;SDS011;11511;51.514;7.080;2023-05-10T12:01:18;18.13;;;12.63;;
22687;SDS011;11511;51.514;7.080;2023-05-10T12:03:43;15.98;;;12.00;;
22687;SDS011;11511;51.514;7.080;2023-05-10T12:06:10;18.40;;;11.63;;
22687;SDS011;11511;51.514;7.080;2023-05-10T12:08:36;19.05;;;12.55;;
22687;SDS011;11511;51.514;7.080;2023-05-10T12:11:05;18.98;;;11.98;;
22687;SDS011;11511;51.514;7.080;2023-05-10T12:13:32;16.50;;;11.15;;
22687;SDS011;11511;51.514;7.080;2023-05-10T12:16:11;15.82;;;11.25;;
22687;SDS011;11511;51.514;7.080;2023-05-10T12:18:55;19.70;;;12.80;;
22687;SDS011;11511;51.514;7.080;2023-05-10T12:21:22;15.57;;;12.45;;
22687;SDS011;11511;51.514;7.080;2023-05-10T12:23:49;15.80;;;11.95;;
22687;SDS011;11511;51.514;7.080;2023-05-10T12:26:16;15.52;;;12.13;;
22687;SDS011;11511;51.514;7.080;2023-05-10T12:28:41;16.40;;;12.07;;
22687;SDS011;11511;51.514;7.080;2023-05-10T12:31:07;16.45;;;11.73;;
22687;SDS011;11511;51.514;7.080;2023-05-10T12:33:40;19.55;;;12.85;;
22687;SDS011;11511;51.514;7.080;2023-05-10T12:36:08;22.80;;;14.15;;
22687;SDS011;11511;51.514;7.080;2023-05-10T12:38:37;17.75;;;13.77;;
22687;SDS011;11511;51.514;7.080;2023-05-10T12:41:11;20.83;;;14.30;;
22687;SDS011;11511;51.514;7.080;2023-05-10T12:43:38;19.20;;;13.75;;
22687;SDS011;11511;51.514;7.080;2023-05-10T12:46:08;19.83;;;14.20;;
22687;SDS011;11511;51.514;7.080;2023-05-10T12:48:35;22.70;;;14.20;;
22687;SDS011;11511;51.514;7.080;2023-05-10T12:51:01;16.15;;;12.60;;
22687;SDS011;11511;51.514;7.080;2023-05-10T12:53:27;18.02;;;12.90;;
22687;SDS011;11511;51.514;7.080;2023-05-10T12:55:52;17.48;;;11.63;;
22687;SDS011;11511;51.514;7.080;2023-05-10T12:58:18;15.10;;;11.60;;
22687;SDS011;11511;51.514;7.080;2023-05-10T13:00:44;15.88;;;9.80;;
22687;SDS011;11511;51.514;7.080;2023-05-10T13:03:10;12.32;;;8.90;;
22687;SDS011;11511;51.514;7.080;2023-05-10T13:05:35;11.20;;;8.30;;
22687;SDS011;11511;51.514;7.080;2023-05-10T13:08:01;9.75;;;7.28;;
22687;SDS011;11511;51.514;7.080;2023-05-10T13:10:28;9.57;;;6.70;;
22687;SDS011;11511;51.514;7.080;2023-05-10T13:12:55;9.27;;;6.30;;
22687;SDS011;11511;51.514;7.080;2023-05-10T13:15:20;8.40;;;5.97;;
22687;SDS011;11511;51.514;7.080;2023-05-10T13:17:46;7.15;;;5.68;;
22687;SDS011;11511;51.514;7.080;2023-05-10T13:20:11;7.32;;;4.80;;
22687;SDS011;11511;51.514;7.080;2023-05-10T13:22:36;9.35;;;5.03;;
22687;SDS011;11511;51.514;7.080;2023-05-10T13:25:02;6.80;;;4.75;;
22687;SDS011;11511;51.514;7.080;2023-05-10T13:27:27;7.10;;;4.70;;
22687;SDS011;11511;51.514;7.080;2023-05-10T13:29:53;7.38;;;5.10;;
22687;SDS011;11511;51.514;7.080;2023-05-10T13:32:20;9.02;;;5.28;;
22687;SDS011;11511;51.514;7.080;2023-05-10T13:34:45;7.90;;;5.20;;
22687;SDS011;11511;51.514;7.080;2023-05-10T13:37:10;7.05;;;4.60;;
22687;SDS011;11511;51.514;7.080;2023-05-10T13:39:36;7.30;;;4.38;;
22687;SDS011;11511;51.514;7.080;2023-05-10T13:42:02;4.78;;;3.60;;
22687;SDS011;11511;51.514;7.080;2023-05-10T13:44:28;6.32;;;3.47;;
22687;SDS011;11511;51.514;7.080;2023-05-10T13:46:54;4.80;;;3.58;;
22687;SDS011;11511;51.514;7.080;2023-05-10T13:49:20;5.82;;;3.35;;
22687;SDS011;11511;51.514;7.080;2023-05-10T13:51:46;7.35;;;3.40;;
22687;SDS011;11511;51.514;7.080;2023-05-10T13:54:11;5.13;;;3.47;;
22687;SDS011;11511;51.514;7.080;2023-05-10T13:56:37;6.20;;;3.50;;
22687;SDS011;11511;51.514;7.080;2023-05-10T13:59:02;5.35;;;3.33;;
22687;SDS011;11511;51.514;7.080;2023-05-10T14:01:27;5.47;;;3.78;;
22687;SDS011;11511;51.514;7.080;2023-05-10T14:03:53;8.52;;;4.70;;
22687;SDS011;11511;51.514;7.080;2023-05-10T14:06:20;7.90;;;4.28;;
22687;SDS011;11511;51.514;7.080;2023-05-10T14:08:46;7.95;;;4.85;;
22687;SDS011;11511;51.514;7.080;2023-05-10T14:11:11;6.28;;;4.55;;
22687;SDS011;11511;51.514;7.080;2023-05-10T14:13:43;8.10;;;4.53;;
22687;SDS011;11511;51.514;7.080;2023-05-10T14:16:08;5.72;;;4.38;;
22687;SDS011;11511;51.514;7.080;2023-05-10T14:18:34;5.97;;;3.97;;
22687;SDS011;11511;51.514;7.080;2023-05-10T14:21:01;6.38;;;4.40;;
22687;SDS011;11511;51.514;7.080;2023-05-10T14:23:28;5.18;;;4.68;;
22687;SDS011;11511;51.514;7.080;2023-05-10T14:25:54;5.57;;;4.93;;
22687;SDS011;11511;51.514;7.080;2023-05-10T14:28:20;6.35;;;4.75;;
22687;SDS011;11511;51.514;7.080;2023-05-10T14:30:46;5.95;;;4.82;;
22687;SDS011;11511;51.514;7.080;2023-05-10T14:33:11;8.07;;;4.82;;
22687;SDS011;11511;51.514;7.080;2023-05-10T14:35:37;5.68;;;4.50;;
22687;SDS011;11511;51.514;7.080;2023-05-10T14:38:03;7.45;;;5.10;;
22687;SDS011;11511;51.514;7.080;2023-05-10T14:40:28;8.10;;;5.72;;
22687;SDS011;11511;51.514;7.080;2023-05-10T14:42:54;8.73;;;7.15;;
22687;SDS011;11511;51.514;7.080;2023-05-10T14:45:20;10.25;;;5.90;;
22687;SDS011;11511;51.514;7.080;2023-05-10T14:47:52;7.03;;;5.40;;
22687;SDS011;11511;51.514;7.080;2023-05-10T14:50:17;9.88;;;5.57;;
22687;SDS011;11511;51.514;7.080;2023-05-10T14:52:43;11.23;;;5.85;;
22687;SDS011;11511;51.514;7.080;2023-05-10T14:55:08;8.38;;;5.68;;
22687;SDS011;11511;51.514;7.080;2023-05-10T14:57:36;7.25;;;5.68;;
22687;SDS011;11511;51.514;7.080;2023-05-10T15:00:02;11.85;;;6.00;;
22687;SDS011;11511;51.514;7.080;2023-05-10T15:02:27;8.88;;;5.90;;
22687;SDS011;11511;51.514;7.080;2023-05-10T15:04:53;8.18;;;5.43;;
22687;SDS011;11511;51.514;7.080;2023-05-10T15:07:18;7.10;;;5.18;;
22687;SDS011;11511;51.514;7.080;2023-05-10T15:09:44;6.63;;;5.32;;
22687;SDS011;11511;51.514;7.080;2023-05-10T15:12:10;6.18;;;4.90;;
22687;SDS011;11511;51.514;7.080;2023-05-10T15:14:35;9.27;;;5.35;;
22687;SDS011;11511;51.514;7.080;2023-05-10T15:17:01;8.00;;;6.13;;
22687;SDS011;11511;51.514;7.080;2023-05-10T15:19:27;7.30;;;5.63;;
22687;SDS011;11511;51.514;7.080;2023-05-10T15:21:54;7.80;;;5.70;;
22687;SDS011;11511;51.514;7.080;2023-05-10T15:24:20;7.35;;;5.60;;
22687;SDS011;11511;51.514;7.080;2023-05-10T15:26:46;7.82;;;5.97;;
22687;SDS011;11511;51.514;7.080;2023-05-10T15:29:11;7.82;;;5.60;;
22687;SDS011;11511;51.514;7.080;2023-05-10T15:31:37;9.25;;;7.03;;
22687;SDS011;11511;51.514;7.080;2023-05-10T15:34:04;7.80;;;6.18;;
22687;SDS011;11511;51.514;7.080;2023-05-10T15:36:31;9.57;;;6.00;;
22687;SDS011;11511;51.514;7.080;2023-05-10T15:38:56;8.85;;;5.75;;
22687;SDS011;11511;51.514;7.080;2023-05-10T15:41:22;6.53;;;5.60;;
22687;SDS011;11511;51.514;7.080;2023-05-10T15:43:47;9.75;;;6.90;;
22687;SDS011;11511;51.514;7.080;2023-05-10T15:46:13;11.98;;;7.55;;
22687;SDS011;11511;51.514;7.080;2023-05-10T15:48:38;9.07;;;7.45;;
22687;SDS011;11511;51.514;7.080;2023-05-10T15:51:04;11.60;;;7.50;;
22687;SDS011;11511;51.514;7.080;2023-05-10T15:53:30;11.18;;;7.22;;
22687;SDS011;11511;51.514;7.080;2023-05-10T15:55:55;15.35;;;7.68;;
22687;SDS011;11511;51.514;7.080;2023-05-10T15:58:20;8.75;;;7.38;;
22687;SDS011;11511;51.514;7.080;2023-05-10T16:00:50;10.40;;;7.95;;
22687;SDS011;11511;51.514;7.080;2023-05-10T16:03:16;11.68;;;8.55;;
22687;SDS011;11511;51.514;7.080;2023-05-10T16:05:41;11.75;;;7.85;;
22687;SDS011;11511;51.514;7.080;2023-05-10T16:08:07;9.68;;;6.95;;
22687;SDS011;11511;51.514;7.080;2023-05-10T16:10:32;8.68;;;7.00;;
22687;SDS011;11511;51.514;7.080;2023-05-10T16:13:03;8.07;;;6.18;;
22687;SDS011;11511;51.514;7.080;2023-05-10T16:15:29;9.10;;;7.15;;
22687;SDS011;11511;51.514;7.080;2023-05-10T16:18:02;10.68;;;6.88;;
22687;SDS011;11511;51.514;7.080;2023-05-10T16:20:27;8.20;;;6.47;;
22687;SDS011;11511;51.514;7.080;2023-05-10T16:22:54;8.75;;;7.03;;
22687;SDS011;11511;51.514;7.080;2023-05-10T16:25:19;9.55;;;7.30;;
22687;SDS011;11511;51.514;7.080;2023-05-10T16:27:45;11.35;;;8.27;;
22687;SDS011;11511;51.514;7.080;2023-05-10T16:30:10;12.82;;;10.80;;
22687;SDS011;11511;51.514;7.080;2023-05-10T16:32:36;14.35;;;11.35;;
22687;SDS011;11511;51.514;7.080;2023-05-10T16:35:01;13.45;;;10.98;;
22687;SDS011;11511;51.514;7.080;2023-05-10T16:37:27;12.80;;;11.25;;
22687;SDS011;11511;51.514;7.080;2023-05-10T16:39:52;13.63;;;11.23;;
22687;SDS011;11511;51.514;7.080;2023-05-10T16:42:17;14.90;;;12.25;;
22687;SDS011;11511;51.514;7.080;2023-05-10T16:44:43;15.02;;;12.30;;
22687;SDS011;11511;51.514;7.080;2023-05-10T16:50:31;17.38;;;12.98;;
22687;SDS011;11511;51.514;7.080;2023-05-10T16:52:56;20.50;;;14.60;;
22687;SDS011;11511;51.514;7.080;2023-05-10T16:55:22;18.08;;;14.82;;
22687;SDS011;11511;51.514;7.080;2023-05-10T16:57:47;20.30;;;14.82;;
22687;SDS011;11511;51.514;7.080;2023-05-10T17:00:13;21.02;;;16.25;;
22687;SDS011;11511;51.514;7.080;2023-05-10T17:02:39;21.98;;;15.82;;
22687;SDS011;11511;51.514;7.080;2023-05-10T17:05:05;20.42;;;14.25;;
22687;SDS011;11511;51.514;7.080;2023-05-10T17:07:31;17.73;;;13.70;;
22687;SDS011;11511;51.514;7.080;2023-05-10T17:09:56;17.02;;;12.38;;
22687;SDS011;11511;51.514;7.080;2023-05-10T17:12:23;16.80;;;11.88;;
22687;SDS011;11511;51.514;7.080;2023-05-10T17:14:48;15.98;;;11.88;;
22687;SDS011;11511;51.514;7.080;2023-05-10T17:17:14;16.13;;;11.25;;
22687;SDS011;11511;51.514;7.080;2023-05-10T17:19:39;12.68;;;10.57;;
22687;SDS011;11511;51.514;7.080;2023-05-10T17:24:56;10.88;;;9.50;;
22687;SDS011;11511;51.514;7.080;2023-05-10T17:27:22;12.70;;;9.00;;
22687;SDS011;11511;51.514;7.080;2023-05-10T17:29:47;11.50;;;9.68;;
22687;SDS011;11511;51.514;7.080;2023-05-10T17:32:12;11.43;;;9.60;;
22687;SDS011;11511;51.514;7.080;2023-05-10T17:34:38;13.75;;;9.38;;
22687;SDS011;11511;51.514;7.080;2023-05-10T17:37:03;10.88;;;8.52;;
22687;SDS011;11511;51.514;7.080;2023-05-10T17:39:29;9.18;;;8.27;;
22687;SDS011;11511;51.514;7.080;2023-05-10T17:41:54;11.45;;;8.18;;
22687;SDS011;11511;51.514;7.080;2023-05-10T17:44:19;13.15;;;8.23;;
22687;SDS011;11511;51.514;7.080;2023-05-10T17:46:46;10.90;;;8.48;;
22687;SDS011;11511;51.514;7.080;2023-05-10T17:49:12;10.07;;;8.98;;
22687;SDS011;11511;51.514;7.080;2023-05-10T17:51:38;10.68;;;8.77;;
22687;SDS011;11511;51.514;7.080;2023-05-10T17:54:07;12.93;;;9.38;;
22687;SDS011;11511;51.514;7.080;2023-05-10T17:56:32;10.90;;;8.90;;
22687;SDS011;11511;51.514;7.080;2023-05-10T17:59:02;11.75;;;9.02;;
22687;SDS011;11511;51.514;7.080;2023-05-10T18:01:30;11.40;;;9.00;;
22687;SDS011;11511;51.514;7.080;2023-05-10T18:03:56;11.50;;;9.13;;
22687;SDS011;11511;51.514;7.080;2023-05-10T18:06:21;13.68;;;9.18;;
22687;SDS011;11511;51.514;7.080;2023-05-10T18:08:47;13.18;;;8.93;;
22687;SDS011;11511;51.514;7.080;2023-05-10T18:11:13;10.65;;;8.82;;
22687;SDS011;11511;51.514;7.080;2023-05-10T18:13:38;12.63;;;8.65;;
22687;SDS011;11511;51.514;7.080;2023-05-10T18:16:03;13.10;;;8.68;;
22687;SDS011;11511;51.514;7.080;2023-05-10T18:18:30;13.52;;;8.80;;
22687;SDS011;11511;51.514;7.080;2023-05-10T18:20:55;10.48;;;8.40;;
22687;SDS011;11511;51.514;7.080;2023-05-10T18:23:22;10.65;;;7.72;;
22687;SDS011;11511;51.514;7.080;2023-05-10T18:25:48;10.93;;;7.85;;
22687;SDS011;11511;51.514;7.080;2023-05-10T18:28:14;12.30;;;8.30;;
22687;SDS011;11511;51.514;7.080;2023-05-10T18:30:39;8.82;;;7.50;;
22687;SDS011;11511;51.514;7.080;2023-05-10T18:33:05;9.13;;;7.68;;
22687;SDS011;11511;51.514;7.080;2023-05-10T18:35:31;9.85;;;7.68;;
22687;SDS011;11511;51.514;7.080;2023-05-10T18:38:02;9.60;;;7.40;;
22687;SDS011;11511;51.514;7.080;2023-05-10T18:40:27;8.10;;;7.28;;
22687;SDS011;11511;51.514;7.080;2023-05-10T18:42:52;9.52;;;7.28;;
22687;SDS011;11511;51.514;7.080;2023-05-10T18:45:18;9.57;;;8.00;;
22687;SDS011;11511;51.514;7.080;2023-05-10T18:47:43;10.18;;;7.70;;
22687;SDS011;11511;51.514;7.080;2023-05-10T18:50:09;9.05;;;7.85;;
22687;SDS011;11511;51.514;7.080;2023-05-10T18:52:35;11.23;;;8.38;;
22687;SDS011;11511;51.514;7.080;2023-05-10T18:55:02;11.23;;;7.80;;
22687;SDS011;11511;51.514;7.080;2023-05-10T18:57:28;10.02;;;7.50;;
22687;SDS011;11511;51.514;7.080;2023-05-10T18:59:53;8.75;;;7.40;;
22687;SDS011;11511;51.514;7.080;2023-05-10T19:02:22;8.77;;;7.15;;
22687;SDS011;11511;51.514;7.080;2023-05-10T19:04:49;8.68;;;7.15;;
22687;SDS011;11511;51.514;7.080;2023-05-10T19:07:14;10.15;;;7.22;;
22687;SDS011;11511;51.514;7.080;2023-05-10T19:09:39;12.25;;;6.82;;
22687;SDS011;11511;51.514;7.080;2023-05-10T19:12:05;7.93;;;6.43;;
22687;SDS011;11511;51.514;7.080;2023-05-10T19:14:30;7.63;;;5.75;;
22687;SDS011;11511;51.514;7.080;2023-05-10T19:17:02;9.10;;;5.85;;
22687;SDS011;11511;51.514;7.080;2023-05-10T19:19:28;6.57;;;5.03;;
22687;SDS011;11511;51.514;7.080;2023-05-10T19:21:53;7.65;;;5.00;;
22687;SDS011;11511;51.514;7.080;2023-05-10T19:24:31;6.15;;;5.32;;
22687;SDS011;11511;51.514;7.080;2023-05-10T19:26:57;6.30;;;5.35;;
22687;SDS011;11511;51.514;7.080;2023-05-10T19:29:24;6.35;;;5.68;;
22687;SDS011;11511;51.514;7.080;2023-05-10T19:31:52;6.68;;;5.18;;
22687;SDS011;11511;51.514;7.080;2023-05-10T19:34:18;6.95;;;6.22;;
22687;SDS011;11511;51.514;7.080;2023-05-10T19:36:44;8.25;;;5.50;;
22687;SDS011;11511;51.514;7.080;2023-05-10T19:39:10;9.95;;;6.10;;
22687;SDS011;11511;51.514;7.080;2023-05-10T19:41:35;7.65;;;6.30;;
22687;SDS011;11511;51.514;7.080;2023-05-10T19:44:01;9.95;;;6.35;;
22687;SDS011;11511;51.514;7.080;2023-05-10T19:46:30;7.97;;;6.47;;
22687;SDS011;11511;51.514;7.080;2023-05-10T19:48:55;8.75;;;7.28;;
22687;SDS011;11511;51.514;7.080;2023-05-10T19:51:21;13.52;;;7.35;;
22687;SDS011;11511;51.514;7.080;2023-05-10T19:56:17;10.52;;;7.93;;
22687;SDS011;11511;51.514;7.080;2023-05-10T19:58:42;11.23;;;7.97;;
22687;SDS011;11511;51.514;7.080;2023-05-10T20:01:08;13.82;;;8.27;;
22687;SDS011;11511;51.514;7.080;2023-05-10T20:03:33;12.90;;;8.32;;
22687;SDS011;11511;51.514;7.080;2023-05-10T20:06:02;10.48;;;8.48;;
22687;SDS011;11511;51.514;7.080;2023-05-10T20:08:28;9.80;;;8.77;;
22687;SDS011;11511;51.514;7.080;2023-05-10T20:10:54;13.77;;;9.32;;
22687;SDS011;11511;51.514;7.080;2023-05-10T20:13:23;11.50;;;9.63;;
22687;SDS011;11511;51.514;7.080;2023-05-10T20:15:48;14.57;;;10.35;;
22687;SDS011;11511;51.514;7.080;2023-05-10T20:18:13;15.32;;;10.43;;
22687;SDS011;11511;51.514;7.080;2023-05-10T20:20:39;16.25;;;11.07;;
22687;SDS011;11511;51.514;7.080;2023-05-10T20:23:11;17.73;;;11.82;;
22687;SDS011;11511;51.514;7.080;2023-05-10T20:25:37;18.85;;;12.27;;
22687;SDS011;11511;51.514;7.080;2023-05-10T20:28:02;23.30;;;13.15;;
22687;SDS011;11511;51.514;7.080;2023-05-10T20:30:29;22.25;;;13.93;;
22687;SDS011;11511;51.514;7.080;2023-05-10T20:32:54;19.50;;;13.60;;
22687;SDS011;11511;51.514;7.080;2023-05-10T20:35:20;23.90;;;15.30;;
22687;SDS011;11511;51.514;7.080;2023-05-10T20:37:52;24.65;;;14.80;;
22687;SDS011;11511;51.514;7.080;2023-05-10T20:40:17;22.73;;;15.07;;
22687;SDS011;11511;51.514;7.080;2023-05-10T20:42:43;24.50;;;15.90;;
22687;SDS011;11511;51.514;7.080;2023-05-10T20:45:14;27.58;;;16.08;;
22687;SDS011;11511;51.514;7.080;2023-05-10T20:47:40;23.90;;;16.50;;
22687;SDS011;11511;51.514;7.080;2023-05-10T20:50:05;25.10;;;16.85;;
22687;SDS011;11511;51.514;7.080;2023-05-10T20:52:31;25.38;;;16.73;;
22687;SDS011;11511;51.514;7.080;2023-05-10T20:54:56;25.30;;;16.67;;
22687;SDS011;11511;51.514;7.080;2023-05-10T20:57:21;27.00;;;16.83;;
22687;SDS011;11511;51.514;7.080;2023-05-10T20:59:48;25.40;;;16.75;;
22687;SDS011;11511;51.514;7.080;2023-05-10T21:02:14;25.02;;;16.08;;
22687;SDS011;11511;51.514;7.080;2023-05-10T21:04:39;23.58;;;15.93;;
22687;SDS011;11511;51.514;7.080;2023-05-10T21:07:05;23.42;;;15.85;;
22687;SDS011;11511;51.514;7.080;2023-05-10T21:09:31;22.67;;;15.63;;
22687;SDS011;11511;51.514;7.080;2023-05-10T21:11:56;23.65;;;16.05;;